Time;durP1;ratioP1;P1;durP2;ratioP2;P2;SDS_P1;SDS_P2;PMS_P1;PMS_P2;Temp;Humidity;BMP_temperature;BMP_pressure;BME280_temperature;BME280_humidity;BME280_pressure;Samples;Min_cycle;Max_cycle;Signal;HPM_P1;HPM_P2
2022/08/03 00:00:38;;;;;;;;;;;;;;;24.74;47.34;100503.06;5026281;28;7058;-76
2022/08/03 00:03:04;;;;;;;;;;;;;;;24.71;46.80;100502.22;5011505;28;7249;-76
2022/08/03 00:05:32;;;;;;;;;;;;;;;24.68;47.04;100503.13;5006867;28;7012;-76
2022/08/03 00:08:01;;;;;;;;;;;;;;;24.64;46.89;100506.66;5009384;28;6875;-76
2022/08/03 00:10:27;;;;;;;;;;;;;;;24.59;47.20;100504.09;4997857;28;7436;-76
2022/08/03 00:12:53;;;;;;;;;;;;;;;24.54;47.39;100511.97;4998948;28;6966;-76
2022/08/03 00:15:19;;;;;;;;;;;;;;;24.49;47.90;100511.13;4979172;28;6813;-76
2022/08/03 00:17:45;;;;;;;;;;;;;;;24.46;47.41;100500.69;5000245;28;7218;-76
2022/08/03 00:20:12;;;;;;;;;;;;;;;24.44;47.42;100502.47;4982792;28;7334;-75
2022/08/03 00:22:38;;;;;;;;;;;;;;;24.44;48.11;100498.97;4999421;28;6965;-76
2022/08/03 00:25:04;;;;;;;;;;;;;;;24.45;47.88;100501.59;5011221;28;6968;-76
2022/08/03 00:27:30;;;;;;;;;;;;;;;24.46;47.82;100499.81;4975785;28;7387;-76
2022/08/03 00:29:55;;;;;;;;;;;;;;;24.49;47.42;100507.66;4975779;28;6808;-76
2022/08/03 00:32:21;;;;;;;;;;;;;;;24.52;47.63;100507.63;5012770;28;6780;-75
2022/08/03 00:34:47;;;;;;;;;;;;;;;24.52;48.06;100500.63;5010591;28;7109;-76
2022/08/03 00:37:13;;;;;;;;;;;;;;;24.54;47.08;100498.88;5012440;28;7004;-76
2022/08/03 00:39:39;;;;;;;;;;;;;;;24.51;47.42;100498.88;5012969;28;7388;-76
2022/08/03 00:42:05;;;;;;;;;;;;;;;24.50;47.73;100496.31;5011587;28;7219;-76
2022/08/03 00:44:37;;;;;;;;;;;;;;;24.50;48.07;100505.00;5014390;28;6787;-75
2022/08/03 00:47:03;;;;;;;;;;;;;;;24.48;47.83;100491.06;5023809;28;7046;-75
2022/08/03 00:49:29;;;;;;;;;;;;;;;24.47;47.54;100499.81;5010628;28;6859;-76
2022/08/03 00:51:55;;;;;;;;;;;;;;;24.45;47.87;100490.22;5010557;28;6776;-75
2022/08/03 00:54:21;;;;;;;;;;;;;;;24.45;48.07;100492.84;5025667;28;6952;-76
2022/08/03 00:56:48;;;;;;;;;;;;;;;24.43;47.47;100494.59;5009845;28;6868;-76
2022/08/03 00:59:15;;;;;;;;;;;;;;;24.43;47.92;100495.47;5012611;28;7771;-76
2022/08/03 01:01:41;;;;;;;;;;;;;;;24.42;47.54;100496.34;5005697;28;7364;-76
2022/08/03 01:04:06;;;;;;;;;;;;;;;24.43;47.85;100495.47;5027851;28;6957;-75
2022/08/03 01:07:05;;;;;;;;;;;;;;;24.44;47.90;100491.09;4981973;28;7814;-75
2022/08/03 01:09:47;;;;;;;;;;;;;;;24.45;48.02;100498.97;4999290;28;8216;-75
2022/08/03 01:12:42;;;;;;;;;;;;;;;24.48;48.25;100501.53;5022933;28;6966;-76
2022/08/03 01:15:30;;;;;;;;;;;;;;;24.47;47.82;100499.81;4988678;28;7317;-76
2022/08/03 01:18:11;;;;;;;;;;;;;;;24.50;47.72;100499.78;5010999;28;7220;-76
2022/08/03 01:20:44;;;;;;;;;;;;;;;24.51;47.58;100498.03;4977340;28;6983;-75
2022/08/03 01:23:47;;;;;;;;;;;;;;;24.52;48.04;100492.75;4987953;28;6808;-75
2022/08/03 01:26:54;;;;;;;;;;;;;;;24.54;47.96;100491.03;4982537;28;8279;-76
2022/08/03 01:30:03;;;;;;;;;;;;;;;24.54;47.43;100492.75;4983301;28;6816;-76
2022/08/03 01:33:02;;;;;;;;;;;;;;;24.53;47.92;100486.66;5001506;28;7468;-75
2022/08/03 01:35:36;;;;;;;;;;;;;;;24.51;48.02;100482.31;5027448;28;7014;-76
2022/08/03 01:38:10;;;;;;;;;;;;;;;24.49;47.44;100484.94;4982619;28;6812;-75
2022/08/03 01:40:41;;;;;;;;;;;;;;;24.50;47.81;100480.59;4979468;28;7043;-75
2022/08/03 01:43:16;;;;;;;;;;;;;;;24.47;47.33;100481.47;5011361;28;8145;-75
2022/08/03 01:45:42;;;;;;;;;;;;;;;24.43;47.93;100477.13;4982216;28;6895;-76
2022/08/03 01:48:14;;;;;;;;;;;;;;;24.41;48.34;100478.91;5014166;28;6800;-75
2022/08/03 01:50:42;;;;;;;;;;;;;;;24.38;47.50;100473.69;4978566;28;6939;-76
2022/08/03 01:53:12;;;;;;;;;;;;;;;24.35;47.69;100465.88;5017137;28;7161;-76
2022/08/03 01:55:39;;;;;;;;;;;;;;;24.32;47.69;100469.38;4984297;28;6799;-76
2022/08/03 01:58:08;;;;;;;;;;;;;;;24.32;48.10;100469.38;5010487;28;7330;-75
2022/08/03 02:00:37;;;;;;;;;;;;;;;24.30;47.65;100471.16;4983868;28;7217;-75
2022/08/03 02:03:07;;;;;;;;;;;;;;;24.29;47.57;100471.16;5014320;28;6796;-75
2022/08/03 02:05:35;;;;;;;;;;;;;;;24.27;47.97;100458.06;5009976;28;6795;-75
2022/08/03 02:08:04;;;;;;;;;;;;;;;24.26;48.44;100470.28;5009416;28;6792;-76
2022/08/03 02:10:32;;;;;;;;;;;;;;;24.26;48.18;100469.41;5028745;28;7259;-75
2022/08/03 02:13:01;;;;;;;;;;;;;;;24.27;48.12;100466.78;4975916;28;7400;-75
2022/08/03 02:15:31;;;;;;;;;;;;;;;24.29;48.30;100468.53;5010209;28;6859;-75
2022/08/03 02:18:00;;;;;;;;;;;;;;;24.27;47.68;100464.19;4970860;28;6998;-78
2022/08/03 02:20:29;;;;;;;;;;;;;;;24.29;48.20;100471.16;5026086;28;7228;-78
2022/08/03 02:22:54;;;;;;;;;;;;;;;24.25;48.04;100471.19;5009646;28;6933;-78
2022/08/03 02:25:20;;;;;;;;;;;;;;;24.21;48.06;100474.69;4980024;28;6839;-77
2022/08/03 02:27:55;;;;;;;;;;;;;;;24.18;48.45;100477.34;5014332;28;6776;-77
2022/08/03 02:30:29;;;;;;;;;;;;;;;24.10;48.47;100469.53;4982701;28;7015;-77
2022/08/03 02:32:58;;;;;;;;;;;;;;;24.05;48.80;100473.94;5012320;28;7037;-77
2022/08/03 02:35:27;;;;;;;;;;;;;;;23.99;49.14;100476.53;4996839;28;7149;-77
2022/08/03 02:38:02;;;;;;;;;;;;;;;23.93;48.60;100468.75;4999598;28;6996;-77
2022/08/03 02:40:31;;;;;;;;;;;;;;;23.87;49.06;100477.50;4977767;28;7372;-77
2022/08/03 02:43:06;;;;;;;;;;;;;;;23.78;48.98;100474.94;4981879;28;6876;-77
2022/08/03 02:45:37;;;;;;;;;;;;;;;23.71;48.78;100476.72;4999856;28;7208;-77
2022/08/03 02:48:06;;;;;;;;;;;;;;;23.65;49.22;100476.75;5016092;28;6808;-77
2022/08/03 02:50:34;;;;;;;;;;;;;;;23.60;49.42;100474.16;4979915;28;6792;-76
2022/08/03 02:53:01;;;;;;;;;;;;;;;23.56;49.91;100475.03;4979493;28;6864;-76
2022/08/03 02:55:29;;;;;;;;;;;;;;;23.51;49.52;100469.81;5018398;28;6978;-77
2022/08/03 02:57:57;;;;;;;;;;;;;;;23.46;50.11;100470.72;5011938;28;6804;-77
2022/08/03 03:00:24;;;;;;;;;;;;;;;23.42;50.08;100468.13;5012620;28;7004;-77
2022/08/03 03:02:52;;;;;;;;;;;;;;;23.39;50.37;100465.53;5000076;28;8068;-77
2022/08/03 03:05:18;;;;;;;;;;;;;;;23.37;50.54;100472.53;4989399;28;8241;-77
2022/08/03 03:07:44;;;;;;;;;;;;;;;23.34;50.59;100469.06;4994850;28;6992;-77
2022/08/03 03:10:11;;;;;;;;;;;;;;;23.33;50.43;100468.16;5013834;28;7298;-76
2022/08/03 03:12:39;;;;;;;;;;;;;;;23.30;50.38;100476.88;5015203;28;6780;-76
2022/08/03 03:15:06;;;;;;;;;;;;;;;23.29;50.07;100474.28;4984549;28;6967;-76
2022/08/03 03:17:35;;;;;;;;;;;;;;;23.24;50.26;100471.66;5012892;28;6972;-76
2022/08/03 03:20:03;;;;;;;;;;;;;;;23.21;50.42;100474.25;5027271;28;6971;-76
2022/08/03 03:22:32;;;;;;;;;;;;;;;23.16;50.75;100470.81;4975767;28;6788;-76
2022/08/03 03:24:59;;;;;;;;;;;;;;;23.10;50.72;100473.44;5012722;28;6865;-76
2022/08/03 03:27:25;;;;;;;;;;;;;;;23.07;50.33;100473.47;5004621;28;7297;-77
2022/08/03 03:29:51;;;;;;;;;;;;;;;23.05;51.09;100472.59;5007798;28;6981;-76
2022/08/03 03:32:17;;;;;;;;;;;;;;;23.04;51.00;100466.47;4996653;28;7193;-76
2022/08/03 03:34:44;;;;;;;;;;;;;;;23.04;51.41;100471.72;4976477;28;7093;-77
2022/08/03 03:37:09;;;;;;;;;;;;;;;23.06;51.47;100472.56;5021027;28;6966;-76
2022/08/03 03:39:35;;;;;;;;;;;;;;;23.06;51.29;100469.97;5006212;28;6776;-76
2022/08/03 03:42:02;;;;;;;;;;;;;;;23.08;51.16;100476.06;5008879;28;6922;-76
2022/08/03 03:44:29;;;;;;;;;;;;;;;23.09;51.67;100471.69;4976667;28;7216;-75
2022/08/03 03:46:57;;;;;;;;;;;;;;;23.11;51.33;100480.41;4978818;28;7200;-76
2022/08/03 03:49:23;;;;;;;;;;;;;;;23.13;51.13;100481.25;4981752;28;7230;-76
2022/08/03 03:51:52;;;;;;;;;;;;;;;23.13;51.14;100476.91;4977087;28;7008;-75
2022/08/03 03:54:18;;;;;;;;;;;;;;;23.18;51.09;100474.28;4978478;28;6958;-76
2022/08/03 03:56:44;;;;;;;;;;;;;;;23.21;51.38;100476.03;5014058;28;6768;-76
2022/08/03 03:59:09;;;;;;;;;;;;;;;23.23;51.25;100466.44;5013273;28;8406;-76
2022/08/03 04:01:35;;;;;;;;;;;;;;;23.27;50.95;100473.38;4990986;28;8090;-75
2022/08/03 04:10:57;;;;;;;;;;;;;;;23.26;50.62;100463.78;5008858;28;6837;-76
2022/08/03 04:12:25;;;;;;;;;;;;;;;23.28;50.66;100470.81;4977462;28;6807;-75
2022/08/03 04:14:56;;;;;;;;;;;;;;;23.30;50.96;100465.56;5026556;28;6975;-75
2022/08/03 04:17:27;;;;;;;;;;;;;;;23.30;51.33;100466.44;4959421;28;7161;-75
2022/08/03 04:19:54;;;;;;;;;;;;;;;23.32;50.83;100471.66;4979321;28;7874;-75
2022/08/03 04:22:28;;;;;;;;;;;;;;;23.33;51.17;100476.00;5007626;28;7317;-76
2022/08/03 04:25:09;;;;;;;;;;;;;;;23.35;51.06;100476.88;4999896;28;7058;-76
2022/08/03 04:27:39;;;;;;;;;;;;;;;23.38;51.13;100483.84;4980653;28;6800;-76
2022/08/03 04:30:08;;;;;;;;;;;;;;;23.40;50.92;100475.13;4971255;28;6823;-76
2022/08/03 04:32:37;;;;;;;;;;;;;;;23.48;51.32;100471.63;4988729;28;6991;-76
2022/08/03 04:35:06;;;;;;;;;;;;;;;23.57;51.48;100480.28;5005927;28;7721;-76
2022/08/03 04:37:39;;;;;;;;;;;;;;;23.68;51.63;100477.63;5012961;28;7196;-76
2022/08/03 04:40:12;;;;;;;;;;;;;;;23.83;51.17;100481.00;4997458;28;6992;-76
2022/08/03 04:42:40;;;;;;;;;;;;;;;23.96;50.50;100474.84;4983480;28;6971;-76
2022/08/03 04:45:13;;;;;;;;;;;;;;;24.07;50.57;100474.78;5002470;28;7065;-76
2022/08/03 04:47:40;;;;;;;;;;;;;;;24.22;50.44;100470.34;4973959;28;7234;-76
2022/08/03 04:50:07;;;;;;;;;;;;;;;24.38;50.71;100474.53;5006467;28;6973;-76
2022/08/03 04:52:34;;;;;;;;;;;;;;;24.54;50.32;100477.94;4999743;28;7066;-76
2022/08/03 04:54:59;;;;;;;;;;;;;;;24.68;49.91;100483.03;5008824;28;7167;-76
2022/08/03 04:57:25;;;;;;;;;;;;;;;24.77;48.98;100474.22;4996398;28;7170;-76
2022/08/03 04:59:55;;;;;;;;;;;;;;;24.87;49.62;100479.41;5013943;28;6768;-76
2022/08/03 05:02:22;;;;;;;;;;;;;;;25.00;49.60;100485.38;4980520;28;6951;-76
2022/08/03 05:04:48;;;;;;;;;;;;;;;25.08;49.21;100484.41;5018478;28;6808;-76
2022/08/03 05:07:16;;;;;;;;;;;;;;;25.19;48.94;100484.28;5014852;28;7328;-75
2022/08/03 05:09:42;;;;;;;;;;;;;;;25.33;48.45;100486.75;4981898;28;7238;-76
2022/08/03 05:12:09;;;;;;;;;;;;;;;25.47;48.76;100485.72;4979039;28;7392;-76
2022/08/03 05:14:37;;;;;;;;;;;;;;;25.63;47.99;100484.66;4979554;28;6926;-76
2022/08/03 05:17:07;;;;;;;;;;;;;;;25.81;48.14;100487.94;4987971;28;6965;-75
2022/08/03 05:19:34;;;;;;;;;;;;;;;26.01;47.95;100485.00;4981256;28;6784;-76
2022/08/03 05:22:00;;;;;;;;;;;;;;;26.22;47.84;100488.25;5014652;28;7030;-76
2022/08/03 05:24:26;;;;;;;;;;;;;;;26.44;47.73;100480.84;5014923;28;7347;-76
2022/08/03 05:26:52;;;;;;;;;;;;;;;26.69;48.50;100490.97;4999023;28;6943;-76
2022/08/03 05:29:18;;;;;;;;;;;;;;;26.96;48.93;100490.50;5012528;28;7252;-77
2022/08/03 05:31:43;;;;;;;;;;;;;;;27.28;48.12;100489.88;4975465;28;7568;-76
2022/08/03 05:34:09;;;;;;;;;;;;;;;27.57;47.34;100492.81;5014119;28;6771;-76
2022/08/03 05:36:35;;;;;;;;;;;;;;;27.85;46.30;100484.31;4980179;28;6949;-76
2022/08/03 05:39:00;;;;;;;;;;;;;;;28.08;45.64;100481.16;5002528;28;7263;-76
2022/08/03 05:41:26;;;;;;;;;;;;;;;28.30;44.78;100472.78;5001860;28;7364;-76
2022/08/03 05:43:53;;;;;;;;;;;;;;;28.45;44.43;100479.44;4978925;28;7400;-76
2022/08/03 05:46:23;;;;;;;;;;;;;;;28.61;43.83;100479.88;4974843;28;6855;-76
2022/08/03 05:48:49;;;;;;;;;;;;;;;28.73;43.11;100476.06;4989829;28;6922;-76
2022/08/03 05:51:15;;;;;;;;;;;;;;;28.87;43.46;100474.84;5014614;28;6975;-76
2022/08/03 05:53:42;;;;;;;;;;;;;;;29.01;43.25;100477.13;5012543;28;6935;-76
2022/08/03 05:56:08;;;;;;;;;;;;;;;29.11;42.55;100482.06;4991773;28;7008;-76
2022/08/03 05:58:34;;;;;;;;;;;;;;;29.16;42.07;100478.44;5010890;28;6800;-76
2022/08/03 06:01:00;;;;;;;;;;;;;;;29.11;41.75;100486.50;5012735;28;6983;-76
2022/08/03 06:03:26;;;;;;;;;;;;;;;29.03;41.99;100488.47;5012254;28;7247;-76
2022/08/03 06:05:55;;;;;;;;;;;;;;;28.93;41.36;100488.72;5026779;28;6980;-76
2022/08/03 06:08:21;;;;;;;;;;;;;;;28.77;40.95;100495.28;5011128;28;6978;-76
2022/08/03 06:10:48;;;;;;;;;;;;;;;28.60;41.62;100491.34;5013400;28;7132;-76
2022/08/03 06:13:13;;;;;;;;;;;;;;;28.46;41.35;100488.19;5011340;28;7137;-76
2022/08/03 06:15:39;;;;;;;;;;;;;;;28.34;41.87;100492.84;4982423;28;6942;-76
2022/08/03 06:18:06;;;;;;;;;;;;;;;28.24;42.20;100494.00;5017844;28;7269;-76
2022/08/03 06:20:32;;;;;;;;;;;;;;;28.14;42.26;100496.81;5010427;28;6799;-76
2022/08/03 06:22:59;;;;;;;;;;;;;;;28.07;42.34;100495.22;4985930;28;6971;-76
2022/08/03 06:25:25;;;;;;;;;;;;;;;28.03;42.09;100493.56;5002145;28;7070;-76
2022/08/03 06:27:51;;;;;;;;;;;;;;;27.97;42.38;100491.06;4994902;28;7305;-76
2022/08/03 06:30:17;;;;;;;;;;;;;;;27.92;42.37;100495.59;4981798;28;6776;-77
2022/08/03 06:32:43;;;;;;;;;;;;;;;27.89;42.57;100501.78;5016990;28;6812;-76
2022/08/03 06:35:09;;;;;;;;;;;;;;;27.88;42.97;100496.53;5012632;28;7892;-76
2022/08/03 06:37:47;;;;;;;;;;;;;;;27.90;43.13;100502.63;5010179;28;6760;-76
2022/08/03 06:40:15;;;;;;;;;;;;;;;27.91;43.29;100497.34;4997703;28;8827;-76
2022/08/03 06:42:42;;;;;;;;;;;;;;;27.95;43.41;100493.72;4979626;28;6875;-76
2022/08/03 06:45:08;;;;;;;;;;;;;;;28.00;43.20;100493.63;4993390;28;6994;-76
2022/08/03 06:47:36;;;;;;;;;;;;;;;28.05;42.97;100494.41;4983104;28;6787;-76
2022/08/03 06:50:03;;;;;;;;;;;;;;;28.09;42.86;100496.03;5027282;28;7354;-76
2022/08/03 06:52:30;;;;;;;;;;;;;;;28.15;42.57;100500.28;5016359;28;7022;-76
2022/08/03 06:54:56;;;;;;;;;;;;;;;28.24;43.02;100501.91;5003183;28;7114;-76
2022/08/03 06:57:22;;;;;;;;;;;;;;;28.31;42.97;100503.50;5011750;28;7100;-76
2022/08/03 06:59:47;;;;;;;;;;;;;;;28.39;42.73;100503.28;5012755;28;7542;-76
2022/08/03 07:02:13;;;;;;;;;;;;;;;28.48;42.14;100502.19;4994979;28;7051;-76
2022/08/03 07:04:39;;;;;;;;;;;;;;;28.59;41.94;100513.34;4979944;28;6971;-76
2022/08/03 07:07:05;;;;;;;;;;;;;;;28.67;42.05;100500.81;4980971;28;7449;-76
2022/08/03 07:09:30;;;;;;;;;;;;;;;28.78;42.18;100497.88;5013305;28;7513;-76
2022/08/03 07:11:56;;;;;;;;;;;;;;;28.89;41.73;100502.94;5002354;28;7141;-76
2022/08/03 07:14:22;;;;;;;;;;;;;;;29.00;41.96;100505.25;5012019;28;7883;-76
2022/08/03 07:16:48;;;;;;;;;;;;;;;29.13;41.69;100503.16;4980950;28;7175;-76
2022/08/03 07:19:13;;;;;;;;;;;;;;;29.25;41.78;100494.88;5015909;28;6792;-76
2022/08/03 07:21:39;;;;;;;;;;;;;;;29.38;41.10;100499.81;5014660;28;6796;-77
2022/08/03 07:24:05;;;;;;;;;;;;;;;29.51;41.35;100495.94;4998433;28;7048;-76
2022/08/03 07:26:30;;;;;;;;;;;;;;;29.63;41.37;100505.25;5015222;28;7093;-76
2022/08/03 07:28:56;;;;;;;;;;;;;;;29.77;41.53;100514.53;5017149;28;6792;-76
2022/08/03 07:31:22;;;;;;;;;;;;;;;29.89;40.62;100510.66;5008126;28;6934;-76
2022/08/03 07:33:47;;;;;;;;;;;;;;;30.01;40.60;100502.34;4993607;28;6962;-76
2022/08/03 07:36:13;;;;;;;;;;;;;;;30.12;40.56;100502.03;4982556;28;6783;-76
2022/08/03 07:38:38;;;;;;;;;;;;;;;30.24;40.42;100506.06;5013973;28;6855;-76
2022/08/03 07:41:04;;;;;;;;;;;;;;;30.32;39.53;100504.00;4970705;28;7187;-76
2022/08/03 07:43:30;;;;;;;;;;;;;;;30.41;40.06;100504.63;5008835;28;6784;-76
2022/08/03 07:45:55;;;;;;;;;;;;;;;30.52;39.61;100505.16;5024225;28;7192;-76
2022/08/03 07:48:21;;;;;;;;;;;;;;;30.65;39.43;100502.09;4979458;28;7284;-76
2022/08/03 07:50:47;;;;;;;;;;;;;;;30.76;39.51;100505.22;4975824;28;7177;-76
2022/08/03 07:53:13;;;;;;;;;;;;;;;30.89;38.42;100503.88;5008020;28;7825;-76
2022/08/03 07:55:38;;;;;;;;;;;;;;;30.99;38.38;100503.53;5008821;28;7192;-76
2022/08/03 07:58:14;;;;;;;;;;;;;;;31.08;37.75;100503.22;4997097;28;7223;-77
2022/08/03 08:00:41;;;;;;;;;;;;;;;31.16;37.62;100506.44;4975461;28;6828;-76
2022/08/03 08:03:06;;;;;;;;;;;;;;;31.24;37.40;100505.34;4978159;28;6781;-76
2022/08/03 08:05:33;;;;;;;;;;;;;;;31.30;37.08;100497.19;5014654;28;7122;-76
2022/08/03 08:08:00;;;;;;;;;;;;;;;31.38;36.96;100494.22;5008819;28;7276;-76
2022/08/03 08:10:27;;;;;;;;;;;;;;;31.47;36.52;100503.59;4996480;28;7153;-76
2022/08/03 08:12:53;;;;;;;;;;;;;;;31.56;36.36;100495.31;4991752;28;7032;-76
2022/08/03 08:15:19;;;;;;;;;;;;;;;31.65;36.37;100497.59;4979065;28;8402;-76
2022/08/03 08:17:57;;;;;;;;;;;;;;;31.77;35.88;100498.91;4980572;28;6962;-76
2022/08/03 08:20:29;;;;;;;;;;;;;;;31.90;35.83;100496.66;4999619;28;6982;-76
2022/08/03 08:22:58;;;;;;;;;;;;;;;32.02;35.71;100494.44;5006966;28;7345;-76
2022/08/03 08:25:25;;;;;;;;;;;;;;;32.11;34.97;100494.94;4977396;28;7130;-76
2022/08/03 08:27:50;;;;;;;;;;;;;;;32.19;34.67;100485.78;4978600;28;6816;-76
2022/08/03 08:30:20;;;;;;;;;;;;;;;32.30;34.61;100495.97;5011815;28;7221;-77
2022/08/03 08:32:47;;;;;;;;;;;;;;;32.38;34.58;100493.88;4976440;28;7045;-76
2022/08/03 08:35:13;;;;;;;;;;;;;;;32.50;34.47;100495.13;5006756;28;6803;-76
2022/08/03 08:37:40;;;;;;;;;;;;;;;32.64;34.28;100492.75;5020755;28;7163;-76
2022/08/03 08:40:07;;;;;;;;;;;;;;;32.85;34.03;100494.56;5008271;28;6926;-76
2022/08/03 08:42:33;;;;;;;;;;;;;;;33.10;33.59;100494.34;4979008;28;7206;-76
2022/08/03 08:45:05;;;;;;;;;;;;;;;33.38;33.43;100491.28;5008755;28;7361;-77
2022/08/03 08:47:32;;;;;;;;;;;;;;;33.72;32.83;100490.66;4971527;28;6824;-76
2022/08/03 08:50:00;;;;;;;;;;;;;;;34.17;31.97;100491.16;4980450;28;7377;-76
2022/08/03 08:52:30;;;;;;;;;;;;;;;34.69;31.23;100493.00;4978776;28;6978;-76
2022/08/03 08:55:02;;;;;;;;;;;;;;;35.33;30.82;100496.75;4989741;28;7001;-76
2022/08/03 08:57:38;;;;;;;;;;;;;;;36.05;29.82;100483.88;5007746;28;7003;-76
2022/08/03 09:00:12;;;;;;;;;;;;;;;36.79;29.13;100484.00;5015440;28;7013;-76
2022/08/03 09:02:41;;;;;;;;;;;;;;;37.49;28.33;100486.81;4972358;28;11371;-76
2022/08/03 09:05:17;;;;;;;;;;;;;;;38.13;27.72;100485.38;5012221;28;7371;-76
2022/08/03 09:07:44;;;;;;;;;;;;;;;38.68;26.59;100487.94;5014739;28;6955;-76
2022/08/03 09:10:13;;;;;;;;;;;;;;;39.21;26.07;100490.50;4959525;28;7050;-77
2022/08/03 09:12:42;;;;;;;;;;;;;;;39.63;25.33;100487.50;5007842;28;6796;-76
2022/08/03 09:15:25;;;;;;;;;;;;;;;40.04;24.79;100492.59;4978621;28;7190;-77
2022/08/03 09:17:58;;;;;;;;;;;;;;;40.41;24.16;100476.38;5002739;28;6787;-76
2022/08/03 09:20:27;;;;;;;;;;;;;;;40.82;23.93;100480.34;5007863;28;7179;-76
2022/08/03 09:23:03;;;;;;;;;;;;;;;41.19;23.37;100483.75;4963282;28;7195;-76
2022/08/03 09:25:41;;;;;;;;;;;;;;;41.48;23.07;100481.41;5013778;28;7008;-76
2022/08/03 09:28:14;;;;;;;;;;;;;;;41.79;22.48;100483.38;4979109;28;7455;-76
2022/08/03 09:30:58;;;;;;;;;;;;;;;42.11;22.10;100477.16;5007909;28;7210;-76
2022/08/03 09:33:24;;;;;;;;;;;;;;;42.45;21.93;100479.63;4999882;28;7211;-76
2022/08/03 09:35:49;;;;;;;;;;;;;;;42.72;21.68;100480.06;5009685;28;6912;-76
2022/08/03 09:38:23;;;;;;;;;;;;;;;42.94;20.98;100478.22;4958456;28;6995;-76
2022/08/03 09:40:49;;;;;;;;;;;;;;;43.18;20.76;100485.09;4972472;28;9564;-76
2022/08/03 09:43:15;;;;;;;;;;;;;;;43.47;20.70;100478.94;4967831;28;7126;-76
2022/08/03 09:45:45;;;;;;;;;;;;;;;43.70;20.41;100480.38;5012818;28;6915;-77
2022/08/03 09:48:29;;;;;;;;;;;;;;;43.87;19.88;100474.44;4979606;28;7016;-77
2022/08/03 09:51:05;;;;;;;;;;;;;;;44.01;19.58;100475.84;4981869;28;6784;-77
2022/08/03 09:53:30;;;;;;;;;;;;;;;44.17;19.50;100480.69;5001432;28;7424;-77
2022/08/03 09:55:59;;;;;;;;;;;;;;;44.35;19.53;100473.53;5011594;28;6780;-77
2022/08/03 09:58:29;;;;;;;;;;;;;;;44.44;19.23;100466.41;5012090;28;7003;-77
2022/08/03 10:01:00;;;;;;;;;;;;;;;44.40;19.30;100471.22;4977806;28;7284;-77
2022/08/03 10:03:29;;;;;;;;;;;;;;;44.58;19.37;100478.59;5017354;28;7956;-77
2022/08/03 10:05:55;;;;;;;;;;;;;;;44.83;19.06;100472.66;5011904;28;7244;-77
2022/08/03 10:08:21;;;;;;;;;;;;;;;45.09;18.79;100470.13;5015784;28;6934;-77
2022/08/03 10:10:52;;;;;;;;;;;;;;;45.22;18.41;100465.22;4977412;28;7209;-77
2022/08/03 10:13:19;;;;;;;;;;;;;;;45.21;18.42;100468.06;5007101;28;6811;-77
2022/08/03 10:15:46;;;;;;;;;;;;;;;45.14;18.34;100462.44;5007766;28;6800;-77
2022/08/03 10:18:13;;;;;;;;;;;;;;;45.13;18.29;100463.44;4997090;28;6973;-77
2022/08/03 10:20:50;;;;;;;;;;;;;;;45.01;18.34;100462.78;4992231;28;8036;-76
2022/08/03 10:23:18;;;;;;;;;;;;;;;44.88;18.52;100464.97;5011159;28;7139;-77
2022/08/03 10:25:57;;;;;;;;;;;;;;;44.79;18.36;100470.28;4995798;28;6988;-77
2022/08/03 10:28:24;;;;;;;;;;;;;;;44.86;18.62;100462.41;5010504;28;7204;-76
2022/08/03 10:30:53;;;;;;;;;;;;;;;45.00;18.38;100458.38;4981291;28;6986;-76
2022/08/03 10:33:30;;;;;;;;;;;;;;;45.19;18.33;100457.41;4976171;28;7210;-76
2022/08/03 10:36:00;;;;;;;;;;;;;;;45.41;18.35;100455.31;5016135;28;7278;-77
2022/08/03 10:38:39;;;;;;;;;;;;;;;45.64;18.36;100446.72;4994370;28;7224;-76
2022/08/03 10:41:07;;;;;;;;;;;;;;;45.70;18.05;100446.09;5008811;28;7027;-76
2022/08/03 10:43:47;;;;;;;;;;;;;;;45.55;17.95;100448.50;4981692;28;7106;-77
2022/08/03 10:46:17;;;;;;;;;;;;;;;45.30;17.80;100447.41;4979969;28;6840;-76
2022/08/03 10:48:45;;;;;;;;;;;;;;;45.21;18.04;100447.31;5025431;28;6996;-76
2022/08/03 10:51:12;;;;;;;;;;;;;;;45.32;17.88;100448.09;4993591;28;7188;-77
2022/08/03 10:53:42;;;;;;;;;;;;;;;45.46;17.83;100447.56;4977455;28;6807;-76
2022/08/03 10:59:37;;;;;;;;;;;;;;;45.51;17.56;100441.69;4975009;28;6936;-77
2022/08/03 11:02:07;;;;;;;;;;;;;;;45.75;17.62;100438.34;4971097;28;8056;-76
2022/08/03 11:04:33;;;;;;;;;;;;;;;46.12;17.47;100443.72;5009946;28;7356;-77
2022/08/03 11:07:23;;;;;;;;;;;;;;;46.35;16.99;100437.78;4995034;28;6934;-76
2022/08/03 11:09:52;;;;;;;;;;;;;;;46.40;16.89;100430.03;4975803;28;7000;-76
2022/08/03 11:12:32;;;;;;;;;;;;;;;46.50;16.85;100430.75;4985613;28;6796;-77
2022/08/03 11:15:05;;;;;;;;;;;;;;;46.64;16.63;100437.44;4996818;28;6964;-77
2022/08/03 11:17:34;;;;;;;;;;;;;;;46.69;16.68;100432.38;4985479;28;7232;-77
2022/08/03 11:20:00;;;;;;;;;;;;;;;46.79;16.66;100437.69;4975252;28;7223;-77
2022/08/03 11:22:53;;;;;;;;;;;;;;;46.77;16.71;100423.44;4995165;28;6972;-76
2022/08/03 11:25:18;;;;;;;;;;;;;;;46.81;16.49;100426.69;4985170;28;7396;-77
2022/08/03 11:27:44;;;;;;;;;;;;;;;46.86;16.40;100430.59;4974797;28;7259;-76
2022/08/03 11:30:25;;;;;;;;;;;;;;;46.94;16.11;100426.19;4982751;28;6826;-76
2022/08/03 11:32:55;;;;;;;;;;;;;;;47.02;16.09;100436.25;5005936;28;11151;-77
2022/08/03 11:35:36;;;;;;;;;;;;;;;47.22;16.18;100428.66;5009623;28;6816;-77
2022/08/03 11:38:07;;;;;;;;;;;;;;;47.55;15.99;100426.00;5009318;28;6888;-77
2022/08/03 11:40:39;;;;;;;;;;;;;;;47.79;15.84;100425.19;4990190;28;6974;-76
2022/08/03 11:43:28;;;;;;;;;;;;;;;47.88;15.62;100428.72;4975484;28;6822;-76
2022/08/03 11:46:16;;;;;;;;;;;;;;;47.71;15.44;100429.75;4983033;28;6979;-76
2022/08/03 11:48:47;;;;;;;;;;;;;;;47.78;15.87;100428.06;5009029;28;6804;-76
2022/08/03 11:51:28;;;;;;;;;;;;;;;47.95;15.69;100418.00;4980004;28;7000;-76
2022/08/03 11:53:59;;;;;;;;;;;;;;;48.07;15.41;100416.66;4980061;28;6871;-77
2022/08/03 11:56:26;;;;;;;;;;;;;;;48.06;15.41;100419.53;4974343;28;6976;-77
2022/08/03 11:58:55;;;;;;;;;;;;;;;48.05;15.76;100418.69;4977676;28;6784;-76
2022/08/03 12:01:24;;;;;;;;;;;;;;;48.18;15.98;100404.56;4976270;28;6938;-76
2022/08/03 12:03:50;;;;;;;;;;;;;;;48.30;15.60;100404.22;4960783;28;7061;-76
2022/08/03 12:06:17;;;;;;;;;;;;;;;48.29;15.54;100405.22;5011032;28;6784;-76
2022/08/03 12:08:45;;;;;;;;;;;;;;;48.38;15.35;100405.03;5011204;28;6804;-77
2022/08/03 12:11:14;;;;;;;;;;;;;;;48.44;15.34;100411.63;5024216;28;7221;-77
2022/08/03 12:13:46;;;;;;;;;;;;;;;48.39;15.17;100400.44;4996764;28;7005;-77
2022/08/03 12:16:24;;;;;;;;;;;;;;;48.44;15.17;100406.19;4996695;28;7203;-77
2022/08/03 12:18:59;;;;;;;;;;;;;;;48.54;15.11;100402.44;4967350;28;7202;-76
2022/08/03 12:21:24;;;;;;;;;;;;;;;48.57;15.21;100405.66;4976256;28;8597;-76
2022/08/03 12:23:58;;;;;;;;;;;;;;;48.72;15.04;100394.00;5022983;28;6962;-77
2022/08/03 12:26:25;;;;;;;;;;;;;;;48.82;15.01;100396.53;4979501;28;6989;-76
2022/08/03 12:28:51;;;;;;;;;;;;;;;48.82;14.73;100401.97;5010283;28;6895;-76
2022/08/03 12:31:17;;;;;;;;;;;;;;;48.65;14.48;100402.91;4992044;28;7358;-76
2022/08/03 12:34:05;;;;;;;;;;;;;;;48.48;14.41;100406.72;5012090;28;6772;-77
2022/08/03 12:36:34;;;;;;;;;;;;;;;48.35;14.29;100405.38;5012007;28;6978;-77
2022/08/03 12:39:06;;;;;;;;;;;;;;;48.29;14.28;100397.06;4979665;28;6800;-76
2022/08/03 12:41:36;;;;;;;;;;;;;;;48.15;14.29;100402.22;4976659;28;7062;-76
2022/08/03 12:44:07;;;;;;;;;;;;;;;47.99;14.70;100407.66;5008686;28;6816;-76
2022/08/03 12:46:40;;;;;;;;;;;;;;;47.93;14.81;100399.19;4997841;28;7244;-76
2022/08/03 12:49:13;;;;;;;;;;;;;;;47.97;14.83;100392.38;5012463;28;6811;-76
2022/08/03 12:51:42;;;;;;;;;;;;;;;48.00;14.88;100390.34;5003631;28;6791;-75
2022/08/03 12:54:22;;;;;;;;;;;;;;;48.03;14.77;100388.13;4977090;28;6956;-76
2022/08/03 12:57:01;;;;;;;;;;;;;;;48.03;14.59;100387.28;4977741;28;7135;-76
2022/08/03 12:59:34;;;;;;;;;;;;;;;47.95;14.71;100399.00;4979424;28;7149;-76
2022/08/03 13:02:00;;;;;;;;;;;;;;;47.93;14.82;100393.75;4975592;28;6815;-77
2022/08/03 13:04:31;;;;;;;;;;;;;;;48.00;14.68;100383.06;4975364;28;7201;-77
2022/08/03 13:07:03;;;;;;;;;;;;;;;47.97;14.55;100386.94;4979059;28;7307;-77
2022/08/03 13:09:51;;;;;;;;;;;;;;;48.00;14.62;100387.63;4977437;28;7158;-77